sensor_id;sensor_type;location;lat;lon;timestamp;pressure;altitude;pressure_sealevel;temperature;humidity
6680;BME280;3376;42.664;23.346;2022-09-09T00:00:54;94788.97;;;19.11;99.73
6680;BME280;3376;42.664;23.346;2022-09-09T00:03:26;94750.66;;;18.92;99.46
6680;BME280;3376;42.664;23.346;2022-09-09T00:05:59;94771.47;;;19.05;99.38
6680;BME280;3376;42.664;23.346;2022-09-09T00:08:37;94777.97;;;19.03;100.00
6680;BME280;3376;42.664;23.346;2022-09-09T00:11:12;94780.38;;;19.04;100.00
6680;BME280;3376;42.664;23.346;2022-09-09T00:13:45;94777.69;;;19.11;99.80
6680;BME280;3376;42.664;23.346;2022-09-09T00:16:19;94721.31;;;18.77;99.27
6680;BME280;3376;42.664;23.346;2022-09-09T00:18:55;94780.38;;;19.04;99.71
6680;BME280;3376;42.664;23.346;2022-09-09T00:21:28;94778.53;;;19.05;99.81
6680;BME280;3376;42.664;23.346;2022-09-09T00:23:57;94769.88;;;19.04;100.00
6680;BME280;3376;42.664;23.346;2022-09-09T00:26:32;94750.56;;;18.99;100.00
6680;BME280;3376;42.664;23.346;2022-09-09T00:29:13;94721.53;;;18.75;100.00
6680;BME280;3376;42.664;23.346;2022-09-09T00:31:42;94740.00;;;18.87;100.00
6680;BME280;3376;42.664;23.346;2022-09-09T00:34:12;94749.69;;;18.87;100.00
6680;BME280;3376;42.664;23.346;2022-09-09T00:36:40;94744.22;;;18.88;100.00
6680;BME280;3376;42.664;23.346;2022-09-09T00:39:13;94749.34;;;18.83;100.00
6680;BME280;3376;42.664;23.346;2022-09-09T00:41:52;94741.00;;;18.86;100.00
6680;BME280;3376;42.664;23.346;2022-09-09T00:44:30;94701.13;;;18.77;100.00
6680;BME280;3376;42.664;23.346;2022-09-09T00:47:12;94727.75;;;18.81;100.00
6680;BME280;3376;42.664;23.346;2022-09-09T00:49:53;94733.53;;;18.71;100.00
6680;BME280;3376;42.664;23.346;2022-09-09T00:52:34;94728.78;;;18.62;100.00
6680;BME280;3376;42.664;23.346;2022-09-09T00:55:07;94730.25;;;18.58;100.00
6680;BME280;3376;42.664;23.346;2022-09-09T00:57:41;94736.19;;;18.65;100.00
6680;BME280;3376;42.664;23.346;2022-09-09T01:00:20;94737.47;;;18.62;100.00
6680;BME280;3376;42.664;23.346;2022-09-09T01:02:59;94733.38;;;18.66;100.00
6680;BME280;3376;42.664;23.346;2022-09-09T01:05:34;94730.53;;;18.68;100.00
6680;BME280;3376;42.664;23.346;2022-09-09T01:08:07;94730.31;;;18.69;100.00
6680;BME280;3376;42.664;23.346;2022-09-09T01:10:43;94733.94;;;18.68;100.00
6680;BME280;3376;42.664;23.346;2022-09-09T01:13:19;94732.88;;;18.58;100.00
6680;BME280;3376;42.664;23.346;2022-09-09T01:15:48;94737.53;;;18.56;100.00
6680;BME280;3376;42.664;23.346;2022-09-09T01:18:21;94731.81;;;18.41;100.00
6680;BME280;3376;42.664;23.346;2022-09-09T01:20:57;94739.88;;;18.46;100.00
6680;BME280;3376;42.664;23.346;2022-09-09T01:23:45;94745.81;;;18.53;100.00
6680;BME280;3376;42.664;23.346;2022-09-09T01:26:23;94736.06;;;18.42;100.00
6680;BME280;3376;42.664;23.346;2022-09-09T01:28:52;94734.25;;;18.42;100.00
6680;BME280;3376;42.664;23.346;2022-09-09T01:31:22;94733.00;;;18.45;100.00
6680;BME280;3376;42.664;23.346;2022-09-09T01:33:50;94734.28;;;18.36;100.00
6680;BME280;3376;42.664;23.346;2022-09-09T01:36:23;94736.19;;;18.29;100.00
6680;BME280;3376;42.664;23.346;2022-09-09T01:38:52;94740.41;;;18.30;100.00
6680;BME280;3376;42.664;23.346;2022-09-09T01:41:20;94747.97;;;18.38;100.00
6680;BME280;3376;42.664;23.346;2022-09-09T01:43:47;94745.66;;;18.30;100.00
6680;BME280;3376;42.664;23.346;2022-09-09T01:46:16;94712.41;;;18.06;100.00
6680;BME280;3376;42.664;23.346;2022-09-09T01:48:45;94741.78;;;18.32;100.00
6680;BME280;3376;42.664;23.346;2022-09-09T01:51:12;94748.84;;;18.32;100.00
6680;BME280;3376;42.664;23.346;2022-09-09T01:53:40;94743.47;;;18.27;100.00
6680;BME280;3376;42.664;23.346;2022-09-09T01:56:16;94760.19;;;18.26;100.00
6680;BME280;3376;42.664;23.346;2022-09-09T01:59:11;94759.53;;;18.12;100.00
6680;BME280;3376;42.664;23.346;2022-09-09T02:01:52;94760.41;;;18.06;100.00
6680;BME280;3376;42.664;23.346;2022-09-09T02:04:35;94757.19;;;18.04;100.00
6680;BME280;3376;42.664;23.346;2022-09-09T02:07:07;94746.31;;;18.01;100.00
6680;BME280;3376;42.664;23.346;2022-09-09T02:09:40;94733.91;;;17.90;100.00
6680;BME280;3376;42.664;23.346;2022-09-09T02:12:13;94750.97;;;17.99;100.00
6680;BME280;3376;42.664;23.346;2022-09-09T02:14:48;94743.69;;;18.01;100.00
6680;BME280;3376;42.664;23.346;2022-09-09T02:17:18;94747.50;;;18.05;100.00
6680;BME280;3376;42.664;23.346;2022-09-09T02:19:49;94731.13;;;18.09;100.00
6680;BME280;3376;42.664;23.346;2022-09-09T02:22:21;94724.00;;;17.92;100.00
6680;BME280;3376;42.664;23.346;2022-09-09T02:24:50;94717.28;;;17.78;100.00
6680;BME280;3376;42.664;23.346;2022-09-09T02:27:20;94725.09;;;17.84;100.00
6680;BME280;3376;42.664;23.346;2022-09-09T02:29:49;94737.13;;;17.92;100.00
6680;BME280;3376;42.664;23.346;2022-09-09T02:32:19;94699.41;;;17.68;100.00
6680;BME280;3376;42.664;23.346;2022-09-09T02:34:51;94713.34;;;17.69;100.00
6680;BME280;3376;42.664;23.346;2022-09-09T02:37:24;94735.22;;;17.81;100.00
6680;BME280;3376;42.664;23.346;2022-09-09T02:39:54;94734.31;;;17.69;100.00
6680;BME280;3376;42.664;23.346;2022-09-09T02:42:20;94749.16;;;17.75;100.00
6680;BME280;3376;42.664;23.346;2022-09-09T02:44:49;94742.47;;;17.79;100.00
6680;BME280;3376;42.664;23.346;2022-09-09T02:47:29;94747.28;;;17.82;100.00
6680;BME280;3376;42.664;23.346;2022-09-09T02:50:07;94759.72;;;17.93;100.00
6680;BME280;3376;42.664;23.346;2022-09-09T02:52:45;94748.56;;;17.73;100.00
6680;BME280;3376;42.664;23.346;2022-09-09T02:55:18;94734.31;;;17.69;100.00
6680;BME280;3376;42.664;23.346;2022-09-09T02:57:48;94751.19;;;17.73;100.00
6680;BME280;3376;42.664;23.346;2022-09-09T03:00:22;94752.66;;;17.62;100.00
6680;BME280;3376;42.664;23.346;2022-09-09T03:02:50;94720.59;;;17.35;100.00
6680;BME280;3376;42.664;23.346;2022-09-09T03:05:17;94747.53;;;17.49;100.00
6680;BME280;3376;42.664;23.346;2022-09-09T03:07:43;94754.16;;;17.45;100.00
6680;BME280;3376;42.664;23.346;2022-09-09T03:10:10;94750.38;;;17.47;100.00
6680;BME280;3376;42.664;23.346;2022-09-09T03:12:37;94757.19;;;17.55;100.00
6680;BME280;3376;42.664;23.346;2022-09-09T03:15:05;94754.94;;;17.58;100.00
6680;BME280;3376;42.664;23.346;2022-09-09T03:17:33;94755.50;;;17.60;100.00
6680;BME280;3376;42.664;23.346;2022-09-09T03:20:01;94750.31;;;17.54;100.00
6680;BME280;3376;42.664;23.346;2022-09-09T03:22:28;94754.34;;;17.56;100.00
6680;BME280;3376;42.664;23.346;2022-09-09T03:24:55;94751.56;;;17.51;100.00
6680;BME280;3376;42.664;23.346;2022-09-09T03:27:22;94744.69;;;17.50;100.00
6680;BME280;3376;42.664;23.346;2022-09-09T03:29:49;94747.13;;;17.45;100.00
6680;BME280;3376;42.664;23.346;2022-09-09T03:32:16;94731.94;;;17.29;100.00
6680;BME280;3376;42.664;23.346;2022-09-09T03:34:45;94750.00;;;17.37;100.00
6680;BME280;3376;42.664;23.346;2022-09-09T03:37:15;94754.38;;;17.43;100.00
6680;BME280;3376;42.664;23.346;2022-09-09T03:39:42;94746.94;;;17.47;100.00
6680;BME280;3376;42.664;23.346;2022-09-09T03:42:09;94740.50;;;17.43;100.00
6680;BME280;3376;42.664;23.346;2022-09-09T03:44:39;94741.69;;;17.47;100.00
6680;BME280;3376;42.664;23.346;2022-09-09T03:47:07;94740.09;;;17.46;100.00
6680;BME280;3376;42.664;23.346;2022-09-09T03:49:34;94739.25;;;17.45;100.00
6680;BME280;3376;42.664;23.346;2022-09-09T03:52:02;94745.13;;;17.47;100.00
6680;BME280;3376;42.664;23.346;2022-09-09T03:54:29;94754.72;;;17.60;100.00
6680;BME280;3376;42.664;23.346;2022-09-09T03:56:56;94753.31;;;17.57;100.00
6680;BME280;3376;42.664;23.346;2022-09-09T03:59:23;94755.47;;;17.67;100.00
6680;BME280;3376;42.664;23.346;2022-09-09T04:01:50;94754.66;;;17.67;100.00
6680;BME280;3376;42.664;23.346;2022-09-09T04:04:17;94765.09;;;17.73;100.00
6680;BME280;3376;42.664;23.346;2022-09-09T04:06:45;94759.56;;;17.56;100.00
6680;BME280;3376;42.664;23.346;2022-09-09T04:09:14;94762.59;;;17.60;100.00
6680;BME280;3376;42.664;23.346;2022-09-09T04:11:41;94759.53;;;17.63;100.00
6680;BME280;3376;42.664;23.346;2022-09-09T04:14:08;94715.56;;;17.34;100.00
6680;BME280;3376;42.664;23.346;2022-09-09T04:16:35;94767.00;;;17.59;100.00
6680;BME280;3376;42.664;23.346;2022-09-09T04:19:03;94756.69;;;17.65;100.00
6680;BME280;3376;42.664;23.346;2022-09-09T04:21:32;94743.09;;;17.49;100.00
6680;BME280;3376;42.664;23.346;2022-09-09T04:23:58;94758.72;;;17.63;100.00
6680;BME280;3376;42.664;23.346;2022-09-09T04:26:26;94752.22;;;17.72;100.00
6680;BME280;3376;42.664;23.346;2022-09-09T04:28:53;94761.56;;;17.86;100.00
6680;BME280;3376;42.664;23.346;2022-09-09T04:31:22;94765.94;;;17.92;100.00
6680;BME280;3376;42.664;23.346;2022-09-09T04:33:49;94763.44;;;18.03;100.00
6680;BME280;3376;42.664;23.346;2022-09-09T04:36:16;94742.53;;;17.97;100.00
6680;BME280;3376;42.664;23.346;2022-09-09T04:38:44;94762.16;;;18.12;100.00
6680;BME280;3376;42.664;23.346;2022-09-09T04:41:11;94773.91;;;18.28;100.00
6680;BME280;3376;42.664;23.346;2022-09-09T04:43:40;94771.00;;;18.36;100.00
6680;BME280;3376;42.664;23.346;2022-09-09T04:46:07;94775.47;;;18.35;100.00
6680;BME280;3376;42.664;23.346;2022-09-09T04:48:33;94771.56;;;18.20;100.00
6680;BME280;3376;42.664;23.346;2022-09-09T04:51:02;94750.28;;;17.85;100.00
6680;BME280;3376;42.664;23.346;2022-09-09T04:53:30;94760.88;;;17.97;100.00
6680;BME280;3376;42.664;23.346;2022-09-09T04:56:04;94754.19;;;18.01;100.00
6680;BME280;3376;42.664;23.346;2022-09-09T04:58:32;94752.53;;;18.06;100.00
6680;BME280;3376;42.664;23.346;2022-09-09T05:01:05;94752.41;;;18.19;100.00
6680;BME280;3376;42.664;23.346;2022-09-09T05:03:32;94758.06;;;18.41;100.00
6680;BME280;3376;42.664;23.346;2022-09-09T05:06:04;94718.13;;;18.39;100.00
6680;BME280;3376;42.664;23.346;2022-09-09T05:08:31;94750.69;;;18.86;100.00
6680;BME280;3376;42.664;23.346;2022-09-09T05:10:58;94721.00;;;19.03;100.00
6680;BME280;3376;42.664;23.346;2022-09-09T05:13:25;94739.66;;;19.31;100.00
6680;BME280;3376;42.664;23.346;2022-09-09T05:15:53;94723.66;;;19.33;99.87
6680;BME280;3376;42.664;23.346;2022-09-09T05:18:22;94753.53;;;19.50;99.50
6680;BME280;3376;42.664;23.346;2022-09-09T05:20:48;94762.25;;;19.62;99.60
6680;BME280;3376;42.664;23.346;2022-09-09T05:23:16;94740.88;;;19.58;99.03
6680;BME280;3376;42.664;23.346;2022-09-09T05:25:43;94738.19;;;19.88;97.85
6680;BME280;3376;42.664;23.346;2022-09-09T05:28:12;94736.28;;;20.18;96.43
6680;BME280;3376;42.664;23.346;2022-09-09T05:30:38;94737.31;;;20.29;94.96
6680;BME280;3376;42.664;23.346;2022-09-09T05:33:05;94746.44;;;20.49;93.60
6680;BME280;3376;42.664;23.346;2022-09-09T05:35:36;94740.03;;;20.68;92.95
6680;BME280;3376;42.664;23.346;2022-09-09T05:38:03;94740.66;;;20.87;90.49
6680;BME280;3376;42.664;23.346;2022-09-09T05:40:30;94751.97;;;21.11;88.17
6680;BME280;3376;42.664;23.346;2022-09-09T05:42:59;94755.34;;;21.23;86.44
6680;BME280;3376;42.664;23.346;2022-09-09T05:45:27;94762.47;;;21.50;82.95
6680;BME280;3376;42.664;23.346;2022-09-09T05:47:59;94765.09;;;21.50;83.89
6680;BME280;3376;42.664;23.346;2022-09-09T05:50:27;94762.53;;;21.55;83.89
6680;BME280;3376;42.664;23.346;2022-09-09T05:52:55;94751.69;;;21.68;80.59
6680;BME280;3376;42.664;23.346;2022-09-09T05:55:22;94759.19;;;21.88;79.11
6680;BME280;3376;42.664;23.346;2022-09-09T05:57:51;94750.88;;;21.96;77.01
6680;BME280;3376;42.664;23.346;2022-09-09T06:00:18;94761.03;;;22.21;76.10
6680;BME280;3376;42.664;23.346;2022-09-09T06:02:50;94761.75;;;22.33;75.12
6680;BME280;3376;42.664;23.346;2022-09-09T06:05:17;94771.44;;;22.44;73.55
6680;BME280;3376;42.664;23.346;2022-09-09T06:07:44;94775.16;;;22.48;71.30
6680;BME280;3376;42.664;23.346;2022-09-09T06:10:12;94791.94;;;22.75;70.09
6680;BME280;3376;42.664;23.346;2022-09-09T06:12:39;94788.41;;;22.86;69.47
6680;BME280;3376;42.664;23.346;2022-09-09T06:15:07;94791.31;;;23.06;67.96
6680;BME280;3376;42.664;23.346;2022-09-09T06:17:34;94788.25;;;23.14;68.54
6680;BME280;3376;42.664;23.346;2022-09-09T06:20:02;94780.44;;;23.24;67.31
6680;BME280;3376;42.664;23.346;2022-09-09T06:22:29;94776.69;;;23.42;66.63
6680;BME280;3376;42.664;23.346;2022-09-09T06:24:55;94788.63;;;23.71;65.75
6680;BME280;3376;42.664;23.346;2022-09-09T06:27:23;94782.78;;;23.95;64.36
6680;BME280;3376;42.664;23.346;2022-09-09T06:29:50;94784.81;;;24.10;63.36
6680;BME280;3376;42.664;23.346;2022-09-09T06:32:17;94780.97;;;24.27;62.21
6680;BME280;3376;42.664;23.346;2022-09-09T06:34:44;94777.88;;;24.35;62.29
6680;BME280;3376;42.664;23.346;2022-09-09T06:37:12;94776.25;;;24.34;62.92
6680;BME280;3376;42.664;23.346;2022-09-09T06:39:39;94764.53;;;24.25;63.06
6680;BME280;3376;42.664;23.346;2022-09-09T06:42:06;94767.56;;;24.39;61.25
6680;BME280;3376;42.664;23.346;2022-09-09T06:44:35;94767.09;;;24.52;60.99
6680;BME280;3376;42.664;23.346;2022-09-09T06:47:02;94765.84;;;24.60;60.79
6680;BME280;3376;42.664;23.346;2022-09-09T06:49:29;94765.94;;;24.38;61.11
6680;BME280;3376;42.664;23.346;2022-09-09T06:51:55;94764.94;;;24.44;60.61
6680;BME280;3376;42.664;23.346;2022-09-09T06:54:22;94770.50;;;24.42;60.64
6680;BME280;3376;42.664;23.346;2022-09-09T06:56:49;94767.69;;;24.59;59.08
6680;BME280;3376;42.664;23.346;2022-09-09T06:59:16;94768.59;;;24.70;58.43
6680;BME280;3376;42.664;23.346;2022-09-09T07:01:44;94746.31;;;24.71;57.28
6680;BME280;3376;42.664;23.346;2022-09-09T07:04:12;94774.59;;;25.07;56.42
6680;BME280;3376;42.664;23.346;2022-09-09T07:06:41;94769.63;;;25.25;55.02
6680;BME280;3376;42.664;23.346;2022-09-09T07:09:11;94749.75;;;25.23;54.57
6680;BME280;3376;42.664;23.346;2022-09-09T07:11:40;94790.22;;;25.70;54.17
6680;BME280;3376;42.664;23.346;2022-09-09T07:14:07;94774.59;;;25.94;52.78
6680;BME280;3376;42.664;23.346;2022-09-09T07:16:34;94772.50;;;26.11;51.93
6680;BME280;3376;42.664;23.346;2022-09-09T07:19:04;94773.31;;;26.06;51.58
6680;BME280;3376;42.664;23.346;2022-09-09T07:21:32;94770.66;;;26.06;52.35
6680;BME280;3376;42.664;23.346;2022-09-09T07:23:59;94736.88;;;25.67;52.44
6680;BME280;3376;42.664;23.346;2022-09-09T07:26:28;94765.31;;;25.91;52.46
6680;BME280;3376;42.664;23.346;2022-09-09T07:28:55;94762.66;;;25.91;52.76
6680;BME280;3376;42.664;23.346;2022-09-09T07:31:24;94718.28;;;25.72;53.12
6680;BME280;3376;42.664;23.346;2022-09-09T07:33:52;94765.06;;;26.28;52.17
6680;BME280;3376;42.664;23.346;2022-09-09T07:36:21;94763.19;;;26.53;51.27
6680;BME280;3376;42.664;23.346;2022-09-09T07:38:50;94759.25;;;26.36;51.75
6680;BME280;3376;42.664;23.346;2022-09-09T07:41:19;94754.16;;;26.54;50.92
6680;BME280;3376;42.664;23.346;2022-09-09T07:43:47;94763.19;;;26.63;49.48
6680;BME280;3376;42.664;23.346;2022-09-09T07:46:16;94773.25;;;26.97;48.31
6680;BME280;3376;42.664;23.346;2022-09-09T07:48:45;94771.53;;;27.36;47.53
6680;BME280;3376;42.664;23.346;2022-09-09T07:51:14;94782.31;;;27.64;46.37
6680;BME280;3376;42.664;23.346;2022-09-09T07:53:46;94774.94;;;28.00;45.59
6680;BME280;3376;42.664;23.346;2022-09-09T07:56:16;94776.34;;;28.26;45.34
6680;BME280;3376;42.664;23.346;2022-09-09T07:58:45;94770.81;;;28.51;43.85
6680;BME280;3376;42.664;23.346;2022-09-09T08:01:15;94773.00;;;28.73;42.94
6680;BME280;3376;42.664;23.346;2022-09-09T08:03:43;94775.72;;;28.97;42.30
6680;BME280;3376;42.664;23.346;2022-09-09T08:06:11;94775.84;;;29.34;41.41
6680;BME280;3376;42.664;23.346;2022-09-09T08:08:39;94768.69;;;29.29;40.58
6680;BME280;3376;42.664;23.346;2022-09-09T08:11:12;94740.41;;;29.05;41.12
6680;BME280;3376;42.664;23.346;2022-09-09T08:13:40;94762.66;;;28.95;41.60
6680;BME280;3376;42.664;23.346;2022-09-09T08:16:08;94765.22;;;28.76;41.91
6680;BME280;3376;42.664;23.346;2022-09-09T08:18:36;94776.47;;;28.97;42.38
6680;BME280;3376;42.664;23.346;2022-09-09T08:21:10;94764.75;;;28.98;41.78
6680;BME280;3376;42.664;23.346;2022-09-09T08:23:39;94757.94;;;29.11;41.56
6680;BME280;3376;42.664;23.346;2022-09-09T08:26:10;94766.50;;;29.31;40.30
6680;BME280;3376;42.664;23.346;2022-09-09T08:28:39;94745.81;;;29.42;39.97
6680;BME280;3376;42.664;23.346;2022-09-09T08:31:08;94768.47;;;29.68;39.68
6680;BME280;3376;42.664;23.346;2022-09-09T08:33:35;94763.44;;;29.43;39.88
6680;BME280;3376;42.664;23.346;2022-09-09T08:36:09;94745.16;;;29.08;41.11
6680;BME280;3376;42.664;23.346;2022-09-09T08:38:37;94753.91;;;28.89;42.02
6680;BME280;3376;42.664;23.346;2022-09-09T08:41:36;94764.75;;;28.74;42.21
6680;BME280;3376;42.664;23.346;2022-09-09T08:44:09;94767.16;;;28.37;42.53
6680;BME280;3376;42.664;23.346;2022-09-09T08:46:44;94759.25;;;28.27;42.65
6680;BME280;3376;42.664;23.346;2022-09-09T08:49:31;94748.22;;;28.10;42.80
6680;BME280;3376;42.664;23.346;2022-09-09T08:52:09;94760.41;;;28.21;42.82
6680;BME280;3376;42.664;23.346;2022-09-09T08:54:41;94746.97;;;28.31;42.69
6680;BME280;3376;42.664;23.346;2022-09-09T08:57:14;94763.28;;;28.58;42.51
6680;BME280;3376;42.664;23.346;2022-09-09T08:59:44;94750.41;;;28.65;42.18
6680;BME280;3376;42.664;23.346;2022-09-09T09:02:16;94755.25;;;28.87;42.43
6680;BME280;3376;42.664;23.346;2022-09-09T09:04:56;94749.34;;;28.90;42.23
6680;BME280;3376;42.664;23.346;2022-09-09T09:07:34;94749.88;;;28.92;41.62
6680;BME280;3376;42.664;23.346;2022-09-09T09:10:10;94752.25;;;28.93;41.73
6680;BME280;3376;42.664;23.346;2022-09-09T09:12:44;94761.88;;;29.18;41.62
6680;BME280;3376;42.664;23.346;2022-09-09T09:15:17;94761.97;;;29.32;41.19
6680;BME280;3376;42.664;23.346;2022-09-09T09:17:46;94748.63;;;29.32;40.65
6680;BME280;3376;42.664;23.346;2022-09-09T09:20:15;94754.72;;;29.37;40.78
6680;BME280;3376;42.664;23.346;2022-09-09T09:22:48;94751.59;;;29.07;41.49
6680;BME280;3376;42.664;23.346;2022-09-09T09:25:18;94729.84;;;28.95;41.52
6680;BME280;3376;42.664;23.346;2022-09-09T09:27:52;94618.34;;;28.21;42.13
6680;BME280;3376;42.664;23.346;2022-09-09T09:30:26;94748.69;;;29.03;41.80
6680;BME280;3376;42.664;23.346;2022-09-09T09:32:58;94758.44;;;28.89;42.75
6680;BME280;3376;42.664;23.346;2022-09-09T09:35:27;94752.97;;;28.75;43.13
6680;BME280;3376;42.664;23.346;2022-09-09T09:37:54;94754.81;;;28.51;43.43
6680;BME280;3376;42.664;23.346;2022-09-09T09:40:22;94753.47;;;28.54;43.06
6680;BME280;3376;42.664;23.346;2022-09-09T09:42:53;94724.56;;;28.66;42.40
6680;BME280;3376;42.664;23.346;2022-09-09T09:45:27;94730.28;;;29.02;41.53
6680;BME280;3376;42.664;23.346;2022-09-09T09:47:59;94742.31;;;29.46;41.40
6680;BME280;3376;42.664;23.346;2022-09-09T09:50:27;94728.31;;;29.54;41.47
6680;BME280;3376;42.664;23.346;2022-09-09T09:52:55;94730.16;;;29.35;41.64
6680;BME280;3376;42.664;23.346;2022-09-09T09:55:23;94686.25;;;28.80;42.38
6680;BME280;3376;42.664;23.346;2022-09-09T09:57:52;94720.06;;;28.85;42.44
6680;BME280;3376;42.664;23.346;2022-09-09T10:00:21;94712.81;;;28.67;42.96
6680;BME280;3376;42.664;23.346;2022-09-09T10:02:49;94716.59;;;28.61;43.78
6680;BME280;3376;42.664;23.346;2022-09-09T10:05:19;94719.66;;;28.73;43.42
6680;BME280;3376;42.664;23.346;2022-09-09T10:07:47;94648.22;;;28.18;44.08
6680;BME280;3376;42.664;23.346;2022-09-09T10:10:37;94732.69;;;28.51;44.41
6680;BME280;3376;42.664;23.346;2022-09-09T10:13:13;94721.09;;;28.32;44.42
6680;BME280;3376;42.664;23.346;2022-09-09T10:15:51;94724.63;;;28.27;44.99
6680;BME280;3376;42.664;23.346;2022-09-09T10:18:35;94735.84;;;28.24;44.98
6680;BME280;3376;42.664;23.346;2022-09-09T10:21:08;94724.69;;;27.84;45.51
6680;BME280;3376;42.664;23.346;2022-09-09T10:23:52;94736.72;;;27.76;45.92
6680;BME280;3376;42.664;23.346;2022-09-09T10:26:32;94742.38;;;27.64;46.65
6680;BME280;3376;42.664;23.346;2022-09-09T10:29:32;94723.13;;;27.34;47.70
6680;BME280;3376;42.664;23.346;2022-09-09T10:32:18;94722.06;;;27.25;48.77
6680;BME280;3376;42.664;23.346;2022-09-09T10:34:56;94736.44;;;27.34;49.02
6680;BME280;3376;42.664;23.346;2022-09-09T10:40:43;94709.88;;;27.14;49.14
6680;BME280;3376;42.664;23.346;2022-09-09T10:43:25;94742.84;;;27.18;50.03
6680;BME280;3376;42.664;23.346;2022-09-09T10:46:02;94746.09;;;27.05;50.42
6680;BME280;3376;42.664;23.346;2022-09-09T10:48:53;94746.59;;;27.07;49.92
6680;BME280;3376;42.664;23.346;2022-09-09T10:51:28;94743.97;;;27.02;50.03
6680;BME280;3376;42.664;23.346;2022-09-09T10:54:11;94743.19;;;26.91;50.15
6680;BME280;3376;42.664;23.346;2022-09-09T10:56:42;94744.81;;;26.87;50.88
6680;BME280;3376;42.664;23.346;2022-09-09T10:59:14;94724.34;;;26.83;52.18
6680;BME280;3376;42.664;23.346;2022-09-09T11:01:50;94731.28;;;26.84;52.11
6680;BME280;3376;42.664;23.346;2022-09-09T11:04:21;94740.81;;;26.90;51.60
6680;BME280;3376;42.664;23.346;2022-09-09T11:06:52;94740.84;;;26.80;51.99
6680;BME280;3376;42.664;23.346;2022-09-09T11:09:23;94733.69;;;26.65;52.44
6680;BME280;3376;42.664;23.346;2022-09-09T11:11:53;94736.09;;;26.67;52.83
6680;BME280;3376;42.664;23.346;2022-09-09T11:14:26;94705.00;;;26.47;53.25
6680;BME280;3376;42.664;23.346;2022-09-09T11:16:59;94747.78;;;26.71;54.25
6680;BME280;3376;42.664;23.346;2022-09-09T11:19:30;94729.69;;;26.73;53.45
6680;BME280;3376;42.664;23.346;2022-09-09T11:22:02;94714.84;;;26.67;53.94
6680;BME280;3376;42.664;23.346;2022-09-09T11:24:33;94684.84;;;26.41;53.49
6680;BME280;3376;42.664;23.346;2022-09-09T11:27:03;94720.91;;;26.82;52.91
6680;BME280;3376;42.664;23.346;2022-09-09T11:29:59;94718.16;;;27.07;51.72
6680;BME280;3376;42.664;23.346;2022-09-09T11:32:45;94717.03;;;27.23;51.96
6680;BME280;3376;42.664;23.346;2022-09-09T11:35:27;94708.47;;;27.36;51.67
6680;BME280;3376;42.664;23.346;2022-09-09T11:38:16;94704.13;;;27.50;50.84
6680;BME280;3376;42.664;23.346;2022-09-09T11:40:45;94692.63;;;27.55;50.49
6680;BME280;3376;42.664;23.346;2022-09-09T11:43:15;94686.31;;;27.46;50.44
6680;BME280;3376;42.664;23.346;2022-09-09T11:45:51;94664.53;;;27.39;50.53
6680;BME280;3376;42.664;23.346;2022-09-09T11:48:27;94681.94;;;27.60;50.93
6680;BME280;3376;42.664;23.346;2022-09-09T11:51:01;94668.59;;;27.65;50.77
6680;BME280;3376;42.664;23.346;2022-09-09T11:53:30;94461.25;;;26.57;51.04
6680;BME280;3376;42.664;23.346;2022-09-09T11:56:06;94636.41;;;27.61;51.44
6680;BME280;3376;42.664;23.346;2022-09-09T11:58:39;94649.41;;;27.73;51.42
6680;BME280;3376;42.664;23.346;2022-09-09T12:01:26;94620.22;;;27.58;51.27
6680;BME280;3376;42.664;23.346;2022-09-09T12:04:15;94665.25;;;27.88;51.13
6680;BME280;3376;42.664;23.346;2022-09-09T12:06:45;94658.22;;;28.02;50.71
6680;BME280;3376;42.664;23.346;2022-09-09T12:09:21;94629.81;;;28.21;49.42
6680;BME280;3376;42.664;23.346;2022-09-09T12:11:49;94661.88;;;28.40;49.22
6680;BME280;3376;42.664;23.346;2022-09-09T12:14:22;94637.28;;;28.19;49.77
6680;BME280;3376;42.664;23.346;2022-09-09T12:16:49;94627.38;;;28.25;49.09
6680;BME280;3376;42.664;23.346;2022-09-09T12:19:20;94647.00;;;28.62;48.78
6680;BME280;3376;42.664;23.346;2022-09-09T12:21:57;94642.91;;;28.88;47.79
6680;BME280;3376;42.664;23.346;2022-09-09T12:24:33;94633.28;;;28.92;48.22
6680;BME280;3376;42.664;23.346;2022-09-09T12:27:08;94637.19;;;29.00;48.83
6680;BME280;3376;42.664;23.346;2022-09-09T12:29:44;94634.22;;;29.02;48.29
6680;BME280;3376;42.664;23.346;2022-09-09T12:32:16;94628.22;;;29.15;47.55
6680;BME280;3376;42.664;23.346;2022-09-09T12:34:47;94629.34;;;29.09;47.79
6680;BME280;3376;42.664;23.346;2022-09-09T12:37:21;94622.00;;;29.19;47.12
6680;BME280;3376;42.664;23.346;2022-09-09T12:39:55;94620.41;;;29.18;46.68
6680;BME280;3376;42.664;23.346;2022-09-09T12:42:22;94615.03;;;29.00;47.25
6680;BME280;3376;42.664;23.346;2022-09-09T12:44:57;94615.63;;;28.97;47.43
6680;BME280;3376;42.664;23.346;2022-09-09T12:47:30;94610.44;;;28.86;48.46
6680;BME280;3376;42.664;23.346;2022-09-09T12:50:03;94624.47;;;28.92;48.45
6680;BME280;3376;42.664;23.346;2022-09-09T12:52:32;94595.56;;;28.80;48.43
6680;BME280;3376;42.664;23.346;2022-09-09T12:55:03;94605.72;;;28.97;48.02
6680;BME280;3376;42.664;23.346;2022-09-09T12:57:34;94613.88;;;29.06;48.14
6680;BME280;3376;42.664;23.346;2022-09-09T13:00:08;94601.38;;;29.25;47.85
6680;BME280;3376;42.664;23.346;2022-09-09T13:02:46;94602.31;;;29.34;47.13
6680;BME280;3376;42.664;23.346;2022-09-09T13:05:19;94582.44;;;29.40;47.20
6680;BME280;3376;42.664;23.346;2022-09-09T13:07:46;94588.22;;;29.47;47.08
6680;BME280;3376;42.664;23.346;2022-09-09T13:10:17;94593.22;;;29.53;46.95
6680;BME280;3376;42.664;23.346;2022-09-09T13:12:46;94605.25;;;29.51;46.47
6680;BME280;3376;42.664;23.346;2022-09-09T13:15:21;94593.59;;;29.10;46.83
6680;BME280;3376;42.664;23.346;2022-09-09T13:17:53;94596.00;;;28.87;48.11
6680;BME280;3376;42.664;23.346;2022-09-09T13:20:22;94586.59;;;28.71;49.07
6680;BME280;3376;42.664;23.346;2022-09-09T13:22:51;94591.16;;;28.71;49.55
6680;BME280;3376;42.664;23.346;2022-09-09T13:25:24;94547.00;;;28.60;49.22
6680;BME280;3376;42.664;23.346;2022-09-09T13:27:55;94580.78;;;28.88;49.23
6680;BME280;3376;42.664;23.346;2022-09-09T13:30:24;94574.78;;;28.77;49.92
6680;BME280;3376;42.664;23.346;2022-09-09T13:33:06;94560.63;;;28.58;49.87